METAR / TAF

Die METAR- und TAF-Liste ist aus technischen Gründen (Verfügbarkeit, Update-Zyklen) nicht für ein Meteo-Briefing gedacht. Benutzen Sie stattdessen skybriefing der Skyguide  oder das TAMSI (MeteoSchweiz-eigene Meteo Selfbriefing-Plattform für Firmen aus der Aviatik; Anfragen über das

Kontaktformular

METAR Schweiz

METAR     LSZH 261320Z VRB04KT 9999 FEW043CB FEW045 27/15 Q1020
               NOSIG=
METAR     LSZH 261350Z 02005KT 320V110 9999 FEW048TCU FEW050 27/15
               Q1019 NOSIG=
METAR     LSGG 261320Z 09005KT 040V200 9999 FEW045 SCT100 28/15
               Q1019 NOSIG=
METAR     LSGG 261350Z 11008KT 9999 FEW045 FEW050CB SCT100 27/14
               Q1019 NOSIG=
METAR     LFSB 261330Z NIL=
METAR     LSZB 261320Z VRB03KT 9999 SCT043 27/17 Q1019 NOSIG=
METAR     LSZB 261350Z 06004KT 010V150 9999 SCT047 28/18 Q1019
               NOSIG=
METAR     LSZA 261320Z 20008KT 9999 FEW050TCU SCT060 30/21 Q1015
               NOSIG=
METAR     LSZA 261350Z 20008KT 9999 VCTS FEW050CB SCT060 31/21
               Q1015 NOSIG=
METAR     LSZG 261320Z AUTO VRB01KT 9999 FEW032 BKN090 BKN110 27/14
               Q1019=
METAR     LSZG 261350Z 30005KT 260V340 9999 FEW057 BKN095TCU 28/16
               Q1019 NOSIG=
METAR     LSZR 261320Z 28007KT 9999 SCT030CB 26/17 Q1019 NOSIG RMK
               K=
METAR     LSZR 261350Z 28008KT 9999 FEW030CB 26/17 Q1019 NOSIG RMK
               L=
METAR     LSGS 261320Z 25016KT 9999 SCT060TCU 30/15 Q1017=
METAR     LSGS 261350Z 25017KT 9999 SCT060TCU 30/15 Q1017=
METAR     LSGC 261320Z 35004KT 260V070 9999 BKN046 SCT055 22/15
               Q1023=
METAR     LSGC 261350Z AUTO 03004KT 330V080 9999 FEW038 OVC048
               21/14 Q1023=
METAR     LSZC 261320Z AUTO VRB03KT 9999 FEW048 SCT110 26/17 Q1020=
METAR     LSZC 261350Z 03003KT 320V070 9999 SCT035 BKN040 26/19
               Q1020=
METAR     LSZL 261320Z NIL=
METAR     LSZL 261350Z 26004KT 230V290 9999 FEW060CB 28/21 Q1015
               RMK BLU+=
METAR     LSZS 261320Z 18009KT 130V220 9999 BKN070TCU 16/11 Q1024=
METAR     LSZS 261350Z VRB02KT 9999 -SHRA BKN070CB 17/11 Q1024=
METAR     LSMA 261350Z 06005KT 9999 VCSH FEW035 BKN110 25/18 Q1020
               RMK BLU=
METAR     LSMA NIL=
METAR     LSMD 261350Z 35003KT 250V050 9999 SCT045 26/16 Q1019 RMK
               BLU+=
METAR     LSMD NIL=
METAR     LSME 261350Z NIL=
METAR     LSME NIL=
METAR     LSMM 261350Z AUTO 04011KT 010V070 9999NDV FEW058 SCT066
               23/17 Q1020 RMK=
METAR     LSMM NIL=
METAR     LSMP 261350Z 34006KT 310V030 CAVOK 27/15 Q1020 RMK BLU=
METAR     LSMP NIL=
METAR     LSMS 261350Z 25017KT 9999 SCT060TCU 30/15 Q1017=
METAR     LSMS NIL=
Aktualisiert am Dienstag, 26. Juli 2016, 16:01 Uhr

TAF Schweiz

TAF     LSZH 261125Z 2612/2718 VRB03KT 9999 FEW030 SCT090
             TX27/2615Z TN17/2704Z TX24/2715Z PROB40 TEMPO
             2613/2619 4000 TSRA SCT030CB PROB40 2703/2706 3000
             MIFG BKN010 PROB40 TEMPO 2707/2716 SHRA=
TAF     LSGG 261125Z 2612/2718 05007KT 9999 FEW040 FEW050TCU
             TX28/2615Z TN17/2704Z TX27/2714Z PROB30 TEMPO
             2612/2618 FEW050CB SCT070 BECMG 2618/2620 VRB03KT
             BECMG 2708/2709 05007KT=
TAF     LFSB 261100Z 2612/2712 31005KT 9999 FEW050TCU PROB40 TEMPO
             2612/2620 SHRA FEW050CB BECMG 2620/2622 SCT045
             SCT080=
TAF     LSGS 261125Z 2612/2621 25015KT 9999 SCT050TCU=
TAF     LSZA 261125Z 2612/2621 19005KT 9999 FEW070 SCT130 PROB30
             TEMPO 2613/2619 4500 TSRA SCT050CB BKN100=
TAF     LSZB 261125Z 2612/2621 VRB03KT 9999 SCT035 PROB30 TEMPO
             2613/2619 4500 SCT035CB BKN070=
TAF     LSZG 261125Z 2612/2621 VRB03KT 9999 FEW055 PROB30
             TEMPO2613/2619 4500 TSRA SCT045CB BKN090=
TAF     LSZL 261125Z 2612/2621 26006KT 9999 SCT130 PROB40 TEMPO
             2613/2619 4500 TSRA SCT050CB BKN100=
TAF     LSZR 261125Z 2612/2621 29005KT 9999 FEW035 PROB30 TEMPO
             2613/2619 4500 TSRA SCT035CB BKN070=
TAF     LSGC 261125Z 2612/2621 VRB03KT 9999 SCT030 BKN060 TEMPO
             2612/2620 SCT020TCU BKN040 PROB30 TEMPO 2612/2618
             4000 TSRA FEW002 SCT010CB BKN015=
TAF     LSZC 261125Z 2612/2621 VRB03KT 9999 SCT035 PROB40 TEMPO
             2613/2619 TSRA SCT035CB BKN070=
TAF     LSZS 261125Z 2612/2621 04010KT 9999 SCT080 TX21/2615Z
             PROB40 TEMPO 2613/2619 TSRA SCT040CB BKN080=
TAF     LSMA 260925Z 2610/2716 08007KT 9999 SCT020 PROB40 TEMPO
             2612/2622 21015G30KT 2500 TSRA SCT040CB PROB30
             2703/2706 4000 MIFG BKN012=
TAF     LSMD 260925Z 2610/2716 33005KT 9999 SCT090 PROB30 TEMPO
             2614/2622 26015G30KT 3000 TSRA FEW040CB PROB30
             2703/2706 2500 PRFG=
TAF     LSME 260925Z 2610/2716 VRB03KT 9999 FEW020 SCT080 PROB40
             TEMPO 2612/2622 26015G30KT 2500 TSRA SCT040CB PROB30
             2703/2706 4000 MIFG BKN012=
TAF     LSMM 260925Z 2610/2716 VRB03KT 9999 FEW015 SCT060 PROB40
             TEMPO 2612/2622 26015G30KT 2500 TSRA SCT040CB PROB30
             2703/2706 4000 MIFG=
TAF     LSMP 260925Z 2610/2716 VRB03KT 9999 FEW050 TEMPO 2612/2618
             FEW050TCU TEMPO 2712/2716 FEW050TCU=
Aktualisiert am Dienstag, 26. Juli 2016, 15:02 Uhr